createdAt,value
2022-12-20T00:04:44.256Z,24.80
2022-12-20T00:09:45.494Z,24.85
2022-12-20T00:14:47.105Z,24.47
2022-12-20T00:19:48.392Z,25.13
2022-12-20T00:24:49.633Z,24.13
2022-12-20T00:29:50.893Z,24.10
2022-12-20T00:34:52.122Z,23.15
2022-12-20T00:39:53.371Z,23.47
2022-12-20T00:44:54.618Z,24.92
2022-12-20T00:49:55.884Z,23.20
2022-12-20T00:54:57.142Z,21.35
2022-12-20T00:59:58.391Z,21.77
2022-12-20T01:04:59.695Z,21.30
2022-12-20T01:10:01.097Z,22.30
2022-12-20T01:15:02.465Z,21.40
2022-12-20T01:20:04.279Z,21.67
2022-12-20T01:25:06.343Z,21.65
2022-12-20T01:30:07.993Z,21.03
2022-12-20T01:35:09.385Z,20.52
2022-12-20T01:40:10.846Z,20.17
2022-12-20T01:45:20.462Z,21.38
2022-12-20T01:50:21.894Z,21.58
2022-12-20T01:55:25.983Z,21.67
2022-12-20T02:00:27.513Z,23.50
2022-12-20T02:05:33.678Z,22.47
2022-12-20T02:10:55.386Z,22.58
2022-12-20T02:15:57.917Z,21.90
2022-12-20T02:21:12.925Z,18.80
2022-12-20T02:26:26.396Z,18.08
2022-12-20T02:31:32.961Z,19.20
2022-12-20T02:36:34.252Z,17.67
2022-12-20T02:41:38.906Z,15.93
2022-12-20T02:46:40.830Z,16.23
2022-12-20T02:51:43.276Z,16.15
2022-12-20T02:57:00.587Z,14.73
2022-12-20T03:02:02.491Z,15.23
2022-12-20T03:07:03.889Z,14.82
2022-12-20T03:12:05.434Z,14.30
2022-12-20T03:17:06.851Z,15.55
2022-12-20T03:22:08.211Z,15.90
2022-12-20T03:27:09.600Z,15.85
2022-12-20T03:32:10.875Z,15.57
2022-12-20T03:37:12.108Z,14.97
2022-12-20T03:42:13.526Z,14.30
2022-12-20T03:47:14.841Z,14.33
2022-12-20T03:52:16.125Z,14.65
2022-12-20T03:57:17.534Z,16.77
2022-12-20T04:02:19.006Z,13.33
2022-12-20T04:07:20.493Z,14.95
2022-12-20T04:12:21.810Z,12.87
2022-12-20T04:17:23.034Z,11.95
2022-12-20T04:22:24.348Z,12.57
2022-12-20T04:27:25.588Z,12.87
2022-12-20T04:32:26.800Z,10.38
2022-12-20T04:37:28.079Z,11.60
2022-12-20T04:42:29.400Z,11.52
2022-12-20T04:47:30.719Z,12.35
2022-12-20T04:52:50.793Z,10.80
2022-12-20T04:57:52.048Z,11.15
2022-12-20T05:02:53.434Z,11.93
2022-12-20T05:07:55.418Z,13.32
2022-12-20T05:12:56.637Z,10.75
2022-12-20T05:17:59.680Z,9.83
2022-12-20T05:23:19.580Z,8.98
2022-12-20T05:28:20.870Z,9.60
2022-12-20T05:33:22.177Z,9.10
2022-12-20T05:38:23.842Z,8.48
2022-12-20T05:43:25.102Z,8.80
2022-12-20T05:48:26.438Z,8.82
2022-12-20T05:53:28.161Z,9.23
2022-12-20T05:58:29.461Z,9.50
2022-12-20T06:03:31.020Z,9.80
2022-12-20T06:08:32.469Z,10.40
2022-12-20T06:13:33.744Z,10.45
2022-12-20T06:18:34.982Z,12.03
2022-12-20T06:23:36.243Z,11.10
2022-12-20T06:28:42.732Z,11.13
2022-12-20T06:33:44.670Z,11.60
2022-12-20T06:38:45.937Z,12.60
2022-12-20T06:43:47.320Z,13.40
2022-12-20T06:48:48.573Z,10.02
2022-12-20T06:53:49.825Z,10.32
2022-12-20T06:58:51.097Z,9.90
2022-12-20T07:03:52.377Z,10.70
2022-12-20T07:08:53.657Z,11.47
2022-12-20T07:13:55.740Z,10.63
2022-12-20T07:18:57.206Z,13.48
2022-12-20T07:23:58.524Z,12.33
2022-12-20T07:28:59.879Z,13.88
2022-12-20T07:34:01.136Z,12.87
2022-12-20T07:39:02.424Z,12.18
2022-12-20T07:44:04.236Z,11.55
2022-12-20T07:49:05.749Z,11.53
2022-12-20T07:54:12.259Z,9.82
2022-12-20T07:59:16.006Z,10.27
2022-12-20T08:04:19.046Z,10.13
2022-12-20T08:09:20.355Z,10.57
2022-12-20T08:14:21.844Z,12.50
2022-12-20T08:19:28.282Z,13.07
2022-12-20T08:24:33.720Z,11.77
2022-12-20T08:29:34.937Z,13.00
2022-12-20T08:34:36.174Z,13.48
2022-12-20T08:39:37.672Z,12.40
2022-12-20T08:44:38.917Z,12.68
2022-12-20T08:49:47.204Z,9.57
2022-12-20T08:54:49.037Z,9.75
2022-12-20T08:59:50.315Z,9.40
2022-12-20T09:04:52.092Z,10.40
2022-12-20T09:09:53.365Z,9.68
2022-12-20T09:14:54.619Z,11.23
2022-12-20T09:19:55.969Z,9.27
2022-12-20T09:24:57.435Z,8.90
2022-12-20T09:29:58.666Z,10.67
2022-12-20T09:34:59.889Z,9.90
2022-12-20T09:40:01.114Z,9.17
2022-12-20T09:45:09.646Z,9.07
2022-12-20T09:50:17.560Z,9.75
2022-12-20T09:55:34.203Z,9.17
2022-12-20T10:00:55.786Z,11.75
2022-12-20T10:06:00.325Z,10.43
2022-12-20T10:11:48.071Z,9.52
2022-12-20T10:17:10.177Z,9.85
2022-12-20T10:22:14.260Z,11.47
2022-12-20T10:27:17.503Z,11.73
2022-12-20T10:32:23.474Z,10.80
2022-12-20T10:37:24.879Z,10.90
2022-12-20T10:42:33.195Z,11.10
2022-12-20T10:47:38.988Z,12.03
2022-12-20T10:52:40.284Z,14.90
2022-12-20T10:57:41.726Z,20.17
2022-12-20T11:03:01.732Z,17.10
2022-12-20T11:13:38.141Z,11.00
2022-12-20T11:18:51.382Z,10.80
2022-12-20T11:23:58.692Z,10.53
2022-12-20T11:29:11.894Z,10.70
2022-12-20T11:34:23.089Z,10.95
2022-12-20T11:39:31.968Z,14.10
2022-12-20T11:44:53.950Z,13.20
2022-12-20T11:50:02.869Z,11.63
2022-12-20T11:55:04.674Z,11.73
2022-12-20T12:00:06.556Z,9.85
2022-12-20T12:05:16.679Z,10.87
2022-12-20T12:10:25.597Z,11.63
2022-12-20T12:15:45.825Z,11.43
2022-12-20T12:20:49.959Z,10.15
2022-12-20T12:25:51.343Z,9.93
2022-12-20T12:31:04.817Z,9.17
2022-12-20T12:36:26.054Z,9.40
2022-12-20T12:41:46.089Z,12.47
2022-12-20T12:46:52.051Z,12.48
2022-12-20T12:51:55.618Z,13.25
2022-12-20T12:57:09.348Z,13.50
2022-12-20T13:02:13.615Z,12.68
2022-12-20T13:07:31.027Z,13.73
2022-12-20T13:12:38.193Z,13.77
2022-12-20T13:17:58.022Z,18.33
2022-12-20T13:23:07.285Z,21.27
2022-12-20T13:28:23.971Z,16.67
2022-12-20T13:33:45.165Z,11.80
2022-12-20T13:38:46.823Z,11.45
2022-12-20T13:43:48.691Z,13.38
2022-12-20T13:48:52.108Z,12.10
2022-12-20T13:53:54.909Z,16.73
2022-12-20T13:58:57.393Z,16.00
2022-12-20T14:03:58.832Z,14.85
2022-12-20T14:09:00.278Z,15.02
2022-12-20T14:14:03.276Z,14.60
2022-12-20T14:19:13.033Z,15.07
2022-12-20T14:24:17.007Z,16.23
2022-12-20T14:29:19.694Z,15.70
2022-12-20T14:34:27.601Z,16.58
2022-12-20T14:39:34.306Z,16.70
2022-12-20T14:44:35.605Z,16.00
2022-12-20T14:49:37.467Z,16.70
2022-12-20T15:00:11.136Z,23.90
2022-12-20T15:05:31.627Z,19.23
2022-12-20T15:10:32.929Z,17.25
2022-12-20T15:15:34.334Z,18.17
2022-12-20T15:20:35.661Z,18.75
2022-12-20T15:25:43.049Z,18.13
2022-12-20T15:30:46.444Z,21.43
2022-12-20T15:35:48.137Z,22.45
2022-12-20T15:40:51.506Z,19.80
2022-12-20T15:45:54.002Z,23.67
2022-12-20T15:50:56.783Z,26.13
2022-12-20T15:55:58.045Z,24.57
2022-12-20T16:01:02.435Z,23.92
2022-12-20T16:06:04.729Z,22.53
2022-12-20T16:11:07.054Z,23.38
2022-12-20T16:16:13.825Z,28.92
2022-12-20T16:21:18.832Z,20.30
2022-12-20T16:26:21.253Z,18.00
2022-12-20T16:31:30.892Z,14.90
2022-12-20T16:36:33.268Z,13.73
2022-12-20T16:41:34.554Z,15.68
2022-12-20T16:46:35.835Z,15.23
2022-12-20T16:51:42.451Z,18.02
2022-12-20T16:56:44.174Z,17.37
2022-12-20T17:01:46.067Z,17.23
2022-12-20T17:06:47.696Z,27.38
2022-12-20T17:11:50.091Z,19.63
2022-12-20T17:16:51.641Z,20.23
2022-12-20T17:27:12.034Z,21.83
2022-12-20T17:32:19.157Z,20.58
2022-12-20T17:37:21.487Z,23.20
2022-12-20T17:42:28.817Z,23.23
2022-12-20T17:47:32.396Z,20.20
2022-12-20T17:52:33.745Z,23.73
2022-12-20T17:57:35.551Z,23.55
2022-12-20T18:02:36.858Z,21.27
2022-12-20T18:07:38.203Z,23.98
2022-12-20T18:12:39.800Z,21.47
2022-12-20T18:17:41.505Z,25.95
2022-12-20T18:22:42.791Z,23.50
2022-12-20T18:27:44.085Z,22.47
2022-12-20T18:32:45.415Z,27.33
2022-12-20T18:37:47.398Z,22.37
2022-12-20T18:42:48.748Z,18.65
2022-12-20T18:47:49.995Z,20.58
2022-12-20T18:52:52.830Z,21.03
2022-12-20T18:57:56.688Z,21.80
2022-12-20T19:02:59.913Z,23.53
2022-12-20T19:08:01.324Z,24.17
2022-12-20T19:13:06.045Z,25.60
2022-12-20T19:18:07.558Z,26.00
2022-12-20T19:23:08.812Z,27.35
2022-12-20T19:28:10.092Z,23.83
2022-12-20T19:33:11.387Z,26.80
2022-12-20T19:38:12.603Z,26.05
2022-12-20T19:43:14.027Z,25.87
2022-12-20T19:48:15.383Z,25.45
2022-12-20T19:53:16.664Z,24.73
2022-12-20T19:58:17.927Z,23.60
2022-12-20T20:03:19.524Z,22.55
2022-12-20T20:08:20.841Z,22.50
2022-12-20T20:13:22.311Z,21.73
2022-12-20T20:18:24.272Z,21.63
2022-12-20T20:23:26.457Z,21.20
2022-12-20T20:28:32.310Z,20.83
2022-12-20T20:33:35.846Z,20.50
2022-12-20T20:38:37.212Z,23.60
2022-12-20T20:43:39.408Z,22.07
2022-12-20T20:48:41.025Z,21.88
2022-12-20T20:53:42.320Z,21.40
2022-12-20T20:58:43.598Z,27.30
2022-12-20T21:03:44.957Z,27.00
2022-12-20T21:08:46.331Z,22.33
2022-12-20T21:13:47.597Z,23.45
2022-12-20T21:18:55.586Z,22.10
2022-12-20T21:23:56.906Z,21.23
2022-12-20T21:28:58.726Z,21.63
2022-12-20T21:34:00.068Z,22.33
2022-12-20T21:39:01.426Z,21.63
2022-12-20T21:44:02.937Z,21.77
2022-12-20T21:49:04.294Z,21.70
2022-12-20T21:54:05.605Z,22.75
2022-12-20T21:59:07.393Z,23.07
2022-12-20T22:04:09.927Z,24.13
2022-12-20T22:09:12.450Z,24.17
2022-12-20T22:14:14.071Z,26.00
2022-12-20T22:19:15.487Z,28.40
2022-12-20T22:24:16.751Z,28.90
2022-12-20T22:29:18.037Z,27.17
2022-12-20T22:34:20.192Z,26.80
2022-12-20T22:39:21.500Z,26.50
2022-12-20T22:44:22.789Z,24.45
2022-12-20T22:49:24.124Z,23.70
2022-12-20T22:54:25.484Z,24.88
2022-12-20T22:59:26.742Z,22.85
2022-12-20T23:04:28.022Z,23.67
2022-12-20T23:09:29.298Z,24.23
2022-12-20T23:14:49.375Z,24.67
2022-12-20T23:20:09.367Z,26.77
2022-12-20T23:25:12.127Z,24.63
2022-12-20T23:30:15.298Z,25.00
2022-12-20T23:35:17.895Z,24.67
2022-12-20T23:40:19.199Z,25.63
2022-12-20T23:45:20.428Z,25.13
2022-12-20T23:50:21.661Z,23.83
2022-12-20T23:55:22.973Z,24.00
